createdAt,value
2022-12-06T00:00:39.156Z,4.30
2022-12-06T00:10:47.276Z,4.36
2022-12-06T00:20:54.458Z,4.26
2022-12-06T00:30:59.816Z,4.17
2022-12-06T00:41:06.607Z,4.24
2022-12-06T00:51:14.855Z,4.36
2022-12-06T01:01:24.016Z,4.35
2022-12-06T01:11:32.345Z,4.19
2022-12-06T01:21:39.443Z,4.21
2022-12-06T01:31:46.455Z,4.22
2022-12-06T01:41:53.459Z,4.29
2022-12-06T01:52:00.997Z,4.43
2022-12-06T02:02:08.866Z,4.33
2022-12-06T02:12:17.712Z,4.24
2022-12-06T02:22:29.898Z,4.34
2022-12-06T02:32:36.704Z,4.52
2022-12-06T02:42:47.829Z,4.42
2022-12-06T02:52:59.967Z,4.16
2022-12-06T03:03:13.773Z,4.06
2022-12-06T03:13:26.490Z,4.10
2022-12-06T03:23:34.232Z,4.23
2022-12-06T03:33:46.344Z,4.26
2022-12-06T03:43:53.976Z,4.29
2022-12-06T03:54:04.749Z,4.05
2022-12-06T04:04:12.469Z,3.89
2022-12-06T04:14:19.626Z,3.88
2022-12-06T04:24:25.756Z,3.87
2022-12-06T04:34:50.605Z,3.90
2022-12-06T04:44:57.920Z,3.88
2022-12-06T04:55:06.177Z,3.93
2022-12-06T05:05:12.303Z,3.86
2022-12-06T05:15:19.410Z,3.77
2022-12-06T05:25:26.559Z,3.78
2022-12-06T05:35:33.870Z,3.81
2022-12-06T05:45:40.800Z,3.80
2022-12-06T05:55:48.049Z,3.82
2022-12-06T06:16:03.988Z,3.92
2022-12-06T06:26:09.170Z,3.83
2022-12-06T06:36:16.237Z,3.77
2022-12-06T06:46:26.375Z,3.74
2022-12-06T06:56:33.649Z,3.76
2022-12-06T07:06:40.695Z,3.78
2022-12-06T07:16:47.850Z,3.85
2022-12-06T07:26:54.974Z,4.02
2022-12-06T07:37:02.390Z,4.31
2022-12-06T07:47:09.531Z,4.34
2022-12-06T07:57:16.779Z,4.22
2022-12-06T08:07:23.636Z,4.18
2022-12-06T08:17:31.217Z,4.23
2022-12-06T08:27:38.577Z,4.29
2022-12-06T08:37:46.255Z,4.37
2022-12-06T08:47:53.189Z,4.39
2022-12-06T08:58:02.948Z,4.25
2022-12-06T09:08:10.397Z,4.13
2022-12-06T09:18:20.573Z,4.14
2022-12-06T09:28:30.898Z,4.25
2022-12-06T09:38:41.707Z,4.46
2022-12-06T09:49:29.223Z,4.53
2022-12-06T09:59:40.523Z,4.46
2022-12-06T10:09:46.227Z,4.44
2022-12-06T10:19:54.277Z,4.41
2022-12-06T10:30:06.473Z,4.34
2022-12-06T10:40:18.725Z,4.38
2022-12-06T10:50:23.588Z,4.43
2022-12-06T11:00:36.032Z,4.41
2022-12-06T11:10:45.063Z,4.47
2022-12-06T11:20:53.758Z,4.44
2022-12-06T11:31:06.429Z,4.36
2022-12-06T11:41:11.843Z,4.32
2022-12-06T11:51:27.481Z,4.40
2022-12-06T12:01:42.062Z,4.51
2022-12-06T12:11:58.694Z,4.47
2022-12-06T12:22:21.189Z,4.41
2022-12-06T12:32:28.810Z,4.25
2022-12-06T12:42:40.213Z,4.25
2022-12-06T12:52:48.062Z,4.24
2022-12-06T13:03:00.003Z,4.25
2022-12-06T13:13:06.593Z,4.35
2022-12-06T13:23:15.614Z,4.41
2022-12-06T13:33:25.806Z,4.24
2022-12-06T13:43:58.822Z,4.04
2022-12-06T13:54:37.151Z,3.98
2022-12-06T14:04:45.093Z,3.95
2022-12-06T14:14:56.334Z,3.91
2022-12-06T14:25:01.422Z,3.92
2022-12-06T14:35:07.625Z,3.84
2022-12-06T14:45:14.359Z,3.61
2022-12-06T14:55:21.206Z,3.28
2022-12-06T15:05:33.662Z,3.13
2022-12-06T15:15:39.799Z,3.01
2022-12-06T15:25:47.177Z,2.85
2022-12-06T15:35:55.864Z,2.59
2022-12-06T15:46:05.276Z,2.42
2022-12-06T15:56:12.920Z,2.38
2022-12-06T16:06:22.127Z,2.42
2022-12-06T16:16:30.370Z,2.50
2022-12-06T16:26:41.036Z,2.42
2022-12-06T16:36:59.298Z,2.30
2022-12-06T16:47:10.530Z,2.11
2022-12-06T16:57:19.832Z,2.00
2022-12-06T17:07:27.782Z,2.02
2022-12-06T17:17:35.607Z,1.98
2022-12-06T17:27:43.147Z,2.04
2022-12-06T17:37:52.706Z,1.97
2022-12-06T17:48:00.302Z,1.78
2022-12-06T17:58:09.571Z,1.56
2022-12-06T18:08:16.766Z,1.44
2022-12-06T18:18:24.259Z,1.47
2022-12-06T18:28:31.550Z,1.49
2022-12-06T18:38:39.953Z,1.53
2022-12-06T18:48:49.700Z,1.53
2022-12-06T18:58:58.553Z,1.39
2022-12-06T19:09:05.286Z,1.29
2022-12-06T19:19:16.855Z,1.28
2022-12-06T19:29:32.548Z,1.27
2022-12-06T19:39:40.383Z,1.32
2022-12-06T19:49:46.380Z,1.42
2022-12-06T19:59:56.776Z,1.35
2022-12-06T20:10:06.027Z,1.24
2022-12-06T20:20:10.392Z,1.09
2022-12-06T20:30:18.184Z,1.07
2022-12-06T20:40:31.083Z,1.10
2022-12-06T20:50:39.581Z,1.12
2022-12-06T21:00:45.064Z,1.16
2022-12-06T21:11:20.997Z,1.12
2022-12-06T21:21:32.632Z,0.99
2022-12-06T21:31:41.064Z,0.90
2022-12-06T21:41:48.711Z,0.88
2022-12-06T21:52:02.241Z,1.00
2022-12-06T22:02:13.680Z,1.07
2022-12-06T22:12:20.957Z,1.09
2022-12-06T22:22:28.153Z,1.01
2022-12-06T22:32:35.832Z,0.90
2022-12-06T22:42:43.295Z,0.91
2022-12-06T22:52:50.742Z,0.97
2022-12-06T23:02:56.665Z,1.06
2022-12-06T23:13:03.983Z,1.10
2022-12-06T23:23:11.192Z,1.06
2022-12-06T23:33:22.692Z,0.93
2022-12-06T23:43:30.557Z,0.83
2022-12-06T23:53:39.689Z,0.88
